Time;durP1;ratioP1;P1;durP2;ratioP2;P2;SDS_P1;SDS_P2;PMS_P1;PMS_P2;Temp;Humidity;BMP_temperature;BMP_pressure;BME280_temperature;BME280_humidity;BME280_pressure;Samples;Min_cycle;Max_cycle;Signal;HPM_P1;HPM_P2
2023/04/17 00:01:42;;;;;;;10.77;4.70;;;9.80;99.90;;;;;;4964856;28;20085;-63
2023/04/17 00:04:09;;;;;;;13.05;5.30;;;9.90;99.90;;;;;;4967704;28;20030;-63
2023/04/17 00:06:42;;;;;;;14.70;5.30;;;9.80;99.90;;;;;;4964774;28;20411;-63
2023/04/17 00:09:08;;;;;;;10.95;6.03;;;9.90;99.90;;;;;;4965608;28;20482;-63
2023/04/17 00:11:34;;;;;;;10.38;5.57;;;9.80;99.90;;;;;;4971547;28;20057;-63
2023/04/17 00:14:00;;;;;;;13.70;5.88;;;9.80;99.90;;;;;;4966706;28;20570;-63
2023/04/17 00:16:26;;;;;;;13.90;6.05;;;9.80;99.90;;;;;;4964366;28;20031;-63
2023/04/17 00:18:53;;;;;;;10.15;5.72;;;9.90;99.90;;;;;;4967314;28;20044;-63
2023/04/17 00:21:19;;;;;;;12.80;5.60;;;9.80;99.90;;;;;;4971073;28;20035;-63
2023/04/17 00:23:45;;;;;;;9.23;4.43;;;9.80;99.90;;;;;;4965666;28;20066;-63
2023/04/17 00:26:11;;;;;;;12.68;6.15;;;9.80;99.90;;;;;;4971072;28;20395;-63
2023/04/17 00:28:37;;;;;;;11.57;5.07;;;9.90;99.90;;;;;;4966619;28;20042;-63
2023/04/17 00:31:04;;;;;;;9.57;4.80;;;9.80;99.90;;;;;;4961887;28;20034;-63
2023/04/17 00:33:31;;;;;;;10.18;4.97;;;9.80;99.90;;;;;;4969172;28;20026;-63
2023/04/17 00:35:56;;;;;;;10.52;5.28;;;9.80;99.90;;;;;;4961685;28;20083;-63
2023/04/17 00:38:22;;;;;;;14.32;6.30;;;9.70;99.90;;;;;;4971508;28;20034;-63
2023/04/17 00:40:50;;;;;;;9.63;5.63;;;9.80;99.90;;;;;;4961187;28;20391;-63
2023/04/17 00:43:16;;;;;;;14.27;6.22;;;9.80;99.90;;;;;;4972228;28;20058;-63
2023/04/17 00:45:42;;;;;;;14.85;6.05;;;9.70;99.90;;;;;;4958956;28;20475;-63
2023/04/17 00:48:09;;;;;;;11.27;5.78;;;9.80;99.90;;;;;;4970897;28;20064;-63
2023/04/17 00:50:35;;;;;;;12.38;5.38;;;9.70;99.90;;;;;;4961905;28;20039;-63
2023/04/17 00:53:01;;;;;;;11.50;6.40;;;9.70;99.90;;;;;;4971465;28;20084;-63
2023/04/17 00:55:29;;;;;;;12.57;6.18;;;9.70;99.90;;;;;;4959905;28;20110;-64
2023/04/17 00:57:55;;;;;;;11.63;5.90;;;9.70;99.90;;;;;;4969270;28;20093;-63
2023/04/17 01:00:21;;;;;;;9.95;5.50;;;9.60;99.90;;;;;;4961291;28;20027;-63
2023/04/17 01:02:47;;;;;;;10.02;5.07;;;9.60;99.90;;;;;;4969479;28;20030;-63
2023/04/17 01:05:13;;;;;;;13.05;5.78;;;9.60;99.90;;;;;;4952422;28;20039;-63
2023/04/17 01:07:40;;;;;;;12.73;5.22;;;9.60;99.90;;;;;;4951567;28;20791;-62
2023/04/17 01:10:07;;;;;;;12.05;5.72;;;9.60;99.90;;;;;;4953782;28;20054;-63
2023/04/17 01:12:33;;;;;;;10.65;5.07;;;9.60;99.90;;;;;;4966571;28;20509;-63
2023/04/17 01:14:58;;;;;;;10.65;5.25;;;9.60;99.90;;;;;;4964775;28;20110;-63
2023/04/17 01:17:25;;;;;;;11.60;4.85;;;9.60;99.90;;;;;;4958036;28;20077;-63
2023/04/17 01:19:51;;;;;;;10.80;6.22;;;9.60;99.90;;;;;;4956303;28;20097;-63
2023/04/17 01:22:19;;;;;;;11.15;5.80;;;9.60;99.90;;;;;;4965488;28;20393;-63
2023/04/17 01:24:46;;;;;;;11.35;5.00;;;9.60;99.90;;;;;;4962134;28;20031;-63
2023/04/17 01:27:12;;;;;;;13.73;5.70;;;9.60;99.90;;;;;;4966150;28;20049;-63
2023/04/17 01:29:39;;;;;;;13.23;6.15;;;9.60;99.90;;;;;;4970036;28;20035;-63
2023/04/17 01:32:06;;;;;;;11.23;6.00;;;9.60;99.90;;;;;;4967743;28;20041;-63
2023/04/17 01:34:31;;;;;;;11.13;5.78;;;9.60;99.90;;;;;;4970398;28;20031;-64
2023/04/17 01:36:57;;;;;;;14.10;6.65;;;9.60;99.90;;;;;;4967393;28;20133;-63
2023/04/17 01:39:23;;;;;;;17.52;7.43;;;9.60;99.90;;;;;;4969766;28;20039;-63
2023/04/17 01:41:50;;;;;;;13.27;6.20;;;9.60;99.90;;;;;;4966398;28;20055;-63
2023/04/17 01:44:16;;;;;;;11.75;6.18;;;9.60;99.90;;;;;;4957965;28;20019;-62
2023/04/17 01:46:43;;;;;;;10.48;5.80;;;9.60;99.90;;;;;;4967564;28;20106;-63
2023/04/17 01:49:10;;;;;;;14.57;6.60;;;9.60;99.90;;;;;;4969791;28;20035;-62
2023/04/17 01:51:36;;;;;;;13.20;7.13;;;9.60;99.90;;;;;;4967294;28;20026;-63
2023/04/17 01:54:01;;;;;;;14.13;6.65;;;9.60;99.90;;;;;;4984699;28;20422;-63
2023/04/17 01:56:27;;;;;;;11.35;6.10;;;9.50;99.90;;;;;;4967071;28;20105;-62
2023/04/17 01:58:53;;;;;;;11.75;5.75;;;9.50;99.90;;;;;;4969935;28;20035;-63
2023/04/17 02:01:19;;;;;;;12.52;5.40;;;9.50;99.90;;;;;;4966896;28;20090;-62
2023/04/17 02:03:44;;;;;;;20.67;6.93;;;9.50;99.90;;;;;;4969535;28;20101;-63
2023/04/17 02:06:11;;;;;;;9.68;5.15;;;9.60;99.90;;;;;;4967008;28;20026;-62
2023/04/17 02:08:36;;;;;;;11.85;5.85;;;9.60;99.90;;;;;;4970573;28;20097;-62
2023/04/17 02:11:02;;;;;;;15.57;6.78;;;9.50;99.90;;;;;;4965388;28;20031;-62
2023/04/17 02:13:28;;;;;;;11.57;5.63;;;9.50;99.90;;;;;;4972960;28;20057;-62
2023/04/17 02:15:54;;;;;;;21.17;5.70;;;9.40;99.90;;;;;;4965691;28;20027;-62
2023/04/17 02:18:20;;;;;;;11.43;5.90;;;9.40;99.90;;;;;;4954339;29;20110;-62
2023/04/17 02:20:46;;;;;;;14.68;6.47;;;9.40;99.90;;;;;;4960285;28;20047;-62
2023/04/17 02:23:11;;;;;;;14.02;5.47;;;9.40;99.90;;;;;;4955359;29;20031;-63
2023/04/17 02:25:37;;;;;;;12.05;5.43;;;9.40;99.90;;;;;;4959454;28;20035;-63
2023/04/17 02:28:03;;;;;;;12.07;5.72;;;9.40;99.90;;;;;;4972871;28;20031;-63
2023/04/17 02:30:29;;;;;;;15.07;6.07;;;9.40;99.90;;;;;;4977520;28;20028;-62
2023/04/17 02:32:56;;;;;;;12.77;5.65;;;9.40;99.90;;;;;;4972935;28;20042;-63
2023/04/17 02:35:25;;;;;;;15.95;5.40;;;9.40;99.90;;;;;;4948491;28;20536;-63
2023/04/17 02:37:51;;;;;;;14.60;6.90;;;9.40;99.90;;;;;;4954050;28;20380;-63
2023/04/17 02:40:17;;;;;;;10.80;5.65;;;9.40;99.90;;;;;;4963500;28;20034;-62
2023/04/17 02:42:43;;;;;;;12.90;5.85;;;9.30;99.90;;;;;;4971369;28;20126;-62
2023/04/17 02:45:10;;;;;;;15.18;6.30;;;9.40;99.90;;;;;;4964066;28;20616;-63
2023/04/17 02:47:36;;;;;;;15.85;6.72;;;9.40;99.90;;;;;;4970293;28;20065;-63
2023/04/17 02:50:02;;;;;;;10.98;5.68;;;9.50;99.90;;;;;;4964609;28;20047;-63
2023/04/17 02:52:30;;;;;;;13.50;6.40;;;9.50;99.90;;;;;;4967835;28;20027;-63
2023/04/17 02:54:56;;;;;;;10.70;5.20;;;9.40;99.90;;;;;;4965577;28;20042;-63
2023/04/17 02:57:23;;;;;;;13.35;4.95;;;9.40;99.90;;;;;;4967828;28;20634;-63
2023/04/17 02:59:50;;;;;;;9.80;4.85;;;9.40;99.90;;;;;;4967375;28;20046;-63
2023/04/17 03:02:20;;;;;;;23.70;6.90;;;9.40;99.90;;;;;;4966265;28;20018;-63
2023/04/17 03:04:50;;;;;;;12.95;5.28;;;9.40;99.90;;;;;;4968087;28;20034;-63
2023/04/17 03:07:18;;;;;;;14.02;4.75;;;9.40;99.90;;;;;;4966339;28;20054;-63
2023/04/17 03:09:46;;;;;;;14.05;6.00;;;9.30;99.90;;;;;;4966481;28;20038;-63
2023/04/17 03:12:13;;;;;;;13.48;5.38;;;9.30;99.90;;;;;;4966606;28;20066;-63
2023/04/17 03:14:40;;;;;;;10.20;5.45;;;9.20;99.90;;;;;;4942392;23;1083051;-62
2023/04/17 03:17:07;;;;;;;13.65;5.32;;;9.20;99.90;;;;;;4972413;28;20506;-62
2023/04/17 03:19:33;;;;;;;15.77;5.88;;;9.20;99.90;;;;;;4987808;28;20073;-63
2023/04/17 03:22:00;;;;;;;11.30;5.90;;;9.20;99.90;;;;;;4988258;28;20054;-63
2023/04/17 03:24:26;;;;;;;13.55;5.60;;;9.20;99.90;;;;;;4965250;28;20495;-63
2023/04/17 03:26:52;;;;;;;10.52;6.80;;;9.20;99.90;;;;;;4963461;28;20506;-62
2023/04/17 03:29:18;;;;;;;10.63;5.55;;;9.20;99.90;;;;;;4965939;28;20031;-64
2023/04/17 03:31:43;;;;;;;13.90;5.55;;;9.20;99.90;;;;;;4962281;28;20038;-63
2023/04/17 03:34:09;;;;;;;12.40;5.68;;;9.20;99.90;;;;;;4968477;28;20530;-63
2023/04/17 03:36:35;;;;;;;12.02;5.65;;;9.20;99.90;;;;;;4962256;28;20113;-63
2023/04/17 03:39:01;;;;;;;11.73;6.22;;;9.10;99.90;;;;;;4967456;28;20033;-63
2023/04/17 03:41:27;;;;;;;14.85;6.40;;;9.10;99.90;;;;;;4960546;28;20059;-63
2023/04/17 03:43:52;;;;;;;16.50;6.35;;;9.00;99.90;;;;;;4968526;28;20109;-63
2023/04/17 03:46:18;;;;;;;15.10;7.55;;;8.90;99.90;;;;;;4944618;28;20532;-63
2023/04/17 03:48:44;;;;;;;18.23;7.22;;;8.90;99.90;;;;;;4968311;28;20035;-63
2023/04/17 03:51:10;;;;;;;15.57;5.85;;;8.90;99.90;;;;;;4961494;28;20031;-63
2023/04/17 03:53:35;;;;;;;13.90;6.25;;;8.90;99.90;;;;;;4967507;28;20035;-63
2023/04/17 03:56:01;;;;;;;12.00;5.55;;;8.90;99.90;;;;;;4959775;28;20039;-63
2023/04/17 03:58:27;;;;;;;10.68;5.35;;;8.90;99.90;;;;;;4967667;28;20410;-63
2023/04/17 04:00:54;;;;;;;11.65;6.47;;;8.80;99.90;;;;;;4962007;28;20884;-63
2023/04/17 04:03:23;;;;;;;15.90;6.97;;;8.80;99.90;;;;;;4966492;28;20034;-63
2023/04/17 04:05:49;;;;;;;14.60;6.25;;;8.70;99.90;;;;;;4962470;28;20082;-63
2023/04/17 04:08:15;;;;;;;15.23;6.85;;;8.70;99.90;;;;;;4965828;28;20031;-63
2023/04/17 04:10:44;;;;;;;14.32;6.47;;;8.60;99.90;;;;;;4963284;28;20057;-63
2023/04/17 04:13:10;;;;;;;11.52;6.05;;;8.60;99.90;;;;;;4963971;28;20030;-63
2023/04/17 04:15:36;;;;;;;14.75;6.60;;;8.60;99.90;;;;;;4963247;28;20086;-63
2023/04/17 04:18:02;;;;;;;15.48;7.28;;;8.70;99.90;;;;;;4964835;28;20448;-63
2023/04/17 04:20:28;;;;;;;17.63;6.85;;;8.60;99.90;;;;;;4961533;28;20035;-63
2023/04/17 04:22:58;;;;;;;20.50;7.82;;;8.50;99.90;;;;;;4964400;28;20471;-63
2023/04/17 04:25:24;;;;;;;12.75;6.30;;;8.50;99.90;;;;;;4963109;28;20026;-63
2023/04/17 04:27:51;;;;;;;17.63;6.70;;;8.50;99.90;;;;;;4963349;28;20023;-63
2023/04/17 04:30:18;;;;;;;14.68;7.45;;;8.50;99.90;;;;;;4963186;28;20074;-63
2023/04/17 04:32:44;;;;;;;16.13;6.95;;;8.60;99.90;;;;;;4963311;28;20039;-63
2023/04/17 04:35:11;;;;;;;15.88;7.25;;;8.60;99.90;;;;;;4949308;28;20110;-63
2023/04/17 04:37:37;;;;;;;16.75;7.65;;;8.60;99.90;;;;;;4959854;28;20034;-62
2023/04/17 04:40:09;;;;;;;15.52;6.72;;;8.60;99.90;;;;;;4950367;28;20431;-62
2023/04/17 04:42:40;;;;;;;24.17;8.13;;;8.70;99.90;;;;;;4956316;28;20415;-63
2023/04/17 04:45:08;;;;;;;;;;;8.60;99.90;;;;;;4955024;28;20395;-65
2023/04/17 04:47:35;;;;;;;16.88;7.28;;;8.70;99.90;;;;;;4962704;28;19914;-63
2023/04/17 04:50:01;;;;;;;23.20;7.75;;;8.60;99.90;;;;;;4962714;28;20090;-63
2023/04/17 04:52:27;;;;;;;17.67;7.60;;;8.70;99.90;;;;;;4961033;28;20027;-63
2023/04/17 04:54:53;;;;;;;18.85;8.30;;;8.70;99.90;;;;;;4952786;28;20692;-63
2023/04/17 04:57:18;;;;;;;19.33;7.47;;;8.80;99.90;;;;;;4963773;28;20078;-63
2023/04/17 04:59:44;;;;;;;15.13;7.90;;;8.90;99.90;;;;;;4962062;28;20455;-63
2023/04/17 05:02:10;;;;;;;19.52;8.90;;;8.90;99.90;;;;;;4963343;28;20019;-63
2023/04/17 05:04:36;;;;;;;18.67;8.65;;;8.90;99.90;;;;;;4962309;28;20027;-63
2023/04/17 05:07:03;;;;;;;18.65;8.45;;;8.90;99.90;;;;;;4961923;28;20030;-64
2023/04/17 05:09:31;;;;;;;17.15;7.78;;;8.90;99.90;;;;;;4963999;28;20037;-63
2023/04/17 05:11:57;;;;;;;19.42;8.75;;;8.90;99.90;;;;;;4962517;28;20031;-63
2023/04/17 05:14:22;;;;;;;18.90;8.13;;;8.90;99.90;;;;;;4964456;28;20058;-63
2023/04/17 05:16:48;;;;;;;20.70;8.35;;;8.90;99.90;;;;;;4966871;28;20039;-64
2023/04/17 05:19:14;;;;;;;19.58;8.40;;;8.90;99.90;;;;;;4951777;28;20093;-63
2023/04/17 05:21:40;;;;;;;18.70;8.85;;;8.90;99.90;;;;;;4960057;28;20030;-63
2023/04/17 05:24:06;;;;;;;18.67;9.40;;;8.90;99.90;;;;;;4966663;28;20032;-63
2023/04/17 05:26:31;;;;;;;20.20;9.60;;;8.90;99.90;;;;;;4960169;28;20487;-63
2023/04/17 05:28:57;;;;;;;15.93;7.72;;;9.00;99.90;;;;;;4953731;28;20384;-64
2023/04/17 05:31:23;;;;;;;21.73;10.30;;;8.90;99.90;;;;;;4959917;28;20094;-63
2023/04/17 05:33:49;;;;;;;17.73;8.85;;;8.90;99.90;;;;;;4965757;28;20031;-63
2023/04/17 05:36:15;;;;;;;19.52;8.68;;;9.00;99.90;;;;;;4959903;28;20034;-64
2023/04/17 05:38:41;;;;;;;15.35;8.02;;;9.10;99.90;;;;;;4966853;28;20042;-65
2023/04/17 05:41:07;;;;;;;23.05;10.10;;;9.20;99.90;;;;;;4958507;28;20039;-63
2023/04/17 05:43:33;;;;;;;19.05;8.68;;;9.10;99.90;;;;;;4966941;28;20391;-64
2023/04/17 05:45:59;;;;;;;16.08;8.18;;;9.30;99.90;;;;;;4959691;28;20406;-63
2023/04/17 05:48:24;;;;;;;19.92;9.18;;;9.40;99.90;;;;;;4964201;28;20037;-62
2023/04/17 05:50:50;;;;;;;20.20;8.15;;;9.40;99.90;;;;;;4960674;28;20071;-63
2023/04/17 05:53:16;;;;;;;15.68;7.45;;;9.40;99.90;;;;;;4964755;28;20042;-63
2023/04/17 05:55:42;;;;;;;16.00;9.13;;;9.40;99.90;;;;;;4957442;28;20109;-63
2023/04/17 05:58:08;;;;;;;16.45;9.23;;;9.40;99.90;;;;;;4955042;28;20256;-64
2023/04/17 06:00:34;;;;;;;24.63;9.82;;;9.60;99.90;;;;;;4952780;28;20124;-62
2023/04/17 06:03:02;;;;;;;18.48;8.05;;;9.50;99.90;;;;;;4960219;28;20368;-64
2023/04/17 06:05:28;;;;;;;18.45;8.82;;;9.60;99.90;;;;;;4960474;28;20033;-64
2023/04/17 06:07:54;;;;;;;14.43;7.13;;;9.60;99.90;;;;;;4961600;28;20039;-64
2023/04/17 06:10:20;;;;;;;15.75;8.70;;;9.70;99.90;;;;;;4960580;28;20026;-64
2023/04/17 06:12:46;;;;;;;18.30;7.72;;;9.80;99.90;;;;;;4962109;28;20031;-63
2023/04/17 06:15:12;;;;;;;20.65;8.35;;;9.70;99.90;;;;;;4962128;28;20126;-64
2023/04/17 06:17:38;;;;;;;21.38;8.60;;;9.70;99.90;;;;;;4966608;28;20026;-64
2023/04/17 06:20:09;;;;;;;21.65;9.07;;;9.70;99.90;;;;;;4965200;28;20061;-64
2023/04/17 06:22:38;;;;;;;18.33;8.27;;;9.70;99.90;;;;;;4949542;28;20390;-64
2023/04/17 06:25:05;;;;;;;24.65;9.40;;;9.80;99.90;;;;;;4963854;28;20159;-64
2023/04/17 06:27:31;;;;;;;15.13;8.25;;;9.90;99.90;;;;;;4966524;28;20022;-64
2023/04/17 06:29:57;;;;;;;17.70;8.13;;;9.90;99.90;;;;;;4963528;28;20027;-64
2023/04/17 06:32:23;;;;;;;13.93;7.57;;;10.00;99.90;;;;;;4966331;28;20042;-64
2023/04/17 06:34:49;;;;;;;16.88;8.48;;;10.00;99.90;;;;;;4965056;28;20039;-63
2023/04/17 06:37:15;;;;;;;16.83;7.03;;;10.00;99.90;;;;;;4962868;28;20110;-64
2023/04/17 06:39:41;;;;;;;16.73;6.95;;;9.90;99.90;;;;;;4953878;28;20385;-64
2023/04/17 06:42:06;;;;;;;17.45;8.23;;;9.90;99.90;;;;;;4966238;28;20050;-63
2023/04/17 06:44:32;;;;;;;14.10;6.95;;;9.80;99.90;;;;;;4963222;28;20031;-63
2023/04/17 06:47:02;;;;;;;16.90;7.32;;;9.90;99.90;;;;;;4964166;28;20656;-63
2023/04/17 06:49:30;;;;;;;13.38;6.70;;;9.90;99.90;;;;;;4954272;28;20039;-61
2023/04/17 06:51:57;;;;;;;21.85;8.52;;;9.90;99.90;;;;;;4964347;28;20126;-62
2023/04/17 06:54:24;;;;;;;18.05;9.13;;;9.90;99.90;;;;;;4967569;28;20031;-62
2023/04/17 06:56:50;;;;;;;13.20;7.05;;;9.90;99.90;;;;;;4963762;28;20050;-62
2023/04/17 06:59:17;;;;;;;15.70;7.15;;;10.00;99.90;;;;;;4966722;28;20476;-62
2023/04/17 07:01:42;;;;;;;17.73;7.65;;;10.10;99.90;;;;;;4961426;28;20027;-63
2023/04/17 07:04:09;;;;;;;16.92;7.22;;;10.10;99.90;;;;;;4968820;28;20089;-64
2023/04/17 07:06:35;;;;;;;15.57;7.55;;;10.30;99.90;;;;;;4962645;28;20624;-64
2023/04/17 07:09:01;;;;;;;15.45;6.88;;;10.40;99.90;;;;;;4967890;28;21240;-67
2023/04/17 07:11:27;;;;;;;17.88;7.15;;;10.50;99.90;;;;;;4962266;28;20082;-63
2023/04/17 07:13:53;;;;;;;12.30;6.57;;;10.50;99.90;;;;;;4962272;28;20035;-64
2023/04/17 07:16:21;;;;;;;12.80;7.03;;;10.70;99.90;;;;;;4962590;28;20102;-64
2023/04/17 07:18:49;;;;;;;12.63;6.10;;;10.70;99.90;;;;;;4967836;28;20402;-65
2023/04/17 07:21:15;;;;;;;15.45;6.47;;;10.80;99.90;;;;;;4961953;28;20674;-63
2023/04/17 07:23:41;;;;;;;16.40;5.85;;;10.80;99.90;;;;;;4967061;28;20039;-64
2023/04/17 07:26:07;;;;;;;18.10;6.22;;;10.90;99.90;;;;;;4962176;28;20026;-64
2023/04/17 07:28:33;;;;;;;10.35;5.60;;;10.90;99.90;;;;;;4969054;28;20352;-64
2023/04/17 07:30:59;;;;;;;13.15;5.90;;;10.80;99.90;;;;;;4960244;28;20100;-63
2023/04/17 07:33:25;;;;;;;12.75;5.45;;;10.90;99.90;;;;;;4968129;28;20039;-64
2023/04/17 07:35:52;;;;;;;12.30;5.60;;;10.90;99.90;;;;;;4962614;28;20042;-64
2023/04/17 07:38:18;;;;;;;10.00;5.20;;;11.00;99.90;;;;;;4966769;28;20022;-64
2023/04/17 07:40:44;;;;;;;12.27;5.90;;;11.10;99.90;;;;;;4963428;28;20513;-64
2023/04/17 07:43:10;;;;;;;10.38;5.05;;;11.10;99.90;;;;;;4965622;28;20035;-64
2023/04/17 07:45:35;;;;;;;10.60;4.80;;;11.20;99.90;;;;;;4963739;28;20023;-64
2023/04/17 07:48:03;;;;;;;13.93;5.75;;;11.40;99.90;;;;;;4964091;28;20430;-64
2023/04/17 07:50:29;;;;;;;13.15;5.82;;;11.40;99.90;;;;;;4963599;28;20140;-64
2023/04/17 07:52:55;;;;;;;13.20;5.18;;;11.40;99.90;;;;;;4963565;28;20039;-65
2023/04/17 07:55:21;;;;;;;10.88;5.10;;;11.50;99.90;;;;;;4962371;28;20034;-65
2023/04/17 07:57:50;;;;;;;7.03;4.47;;;11.70;99.90;;;;;;4964845;28;20026;-65
2023/04/17 08:00:16;;;;;;;10.35;4.85;;;11.70;99.90;;;;;;4963377;28;20126;-65
2023/04/17 08:02:42;;;;;;;8.85;4.55;;;11.80;99.90;;;;;;4963387;28;20027;-65
2023/04/17 08:05:09;;;;;;;10.98;3.92;;;11.80;99.90;;;;;;4962349;28;20060;-65
2023/04/17 08:07:36;;;;;;;10.45;4.65;;;12.10;99.90;;;;;;4964534;28;20061;-65
2023/04/17 08:10:03;;;;;;;9.23;4.13;;;12.30;99.90;;;;;;4963261;28;20415;-65
2023/04/17 08:12:29;;;;;;;7.13;4.25;;;12.50;99.90;;;;;;4963197;28;20037;-65
2023/04/17 08:14:54;;;;;;;8.35;3.55;;;12.50;99.90;;;;;;4944390;28;20040;-65
2023/04/17 08:17:22;;;;;;;7.15;3.20;;;12.50;99.90;;;;;;4963279;28;20382;-64
2023/04/17 08:19:56;;;;;;;5.72;3.40;;;12.60;99.90;;;;;;4961680;28;20050;-65
2023/04/17 08:22:23;;;;;;;6.82;3.70;;;12.70;99.90;;;;;;4964217;28;20037;-65
2023/04/17 08:24:49;;;;;;;9.52;3.30;;;12.60;99.90;;;;;;4963146;28;20090;-65
2023/04/17 08:27:15;;;;;;;6.63;2.67;;;12.80;99.90;;;;;;4964634;28;20030;-66
2023/04/17 08:29:42;;;;;;;6.80;2.97;;;13.00;99.90;;;;;;4963094;28;20506;-65
2023/04/17 08:32:08;;;;;;;17.13;4.20;;;12.70;99.90;;;;;;4953143;28;20027;-65
2023/04/17 08:34:35;;;;;;;4.97;3.00;;;12.90;99.90;;;;;;4952500;28;20027;-65
2023/04/17 08:37:00;;;;;;;8.25;2.97;;;12.90;99.90;;;;;;4962561;28;20066;-65
2023/04/17 08:39:26;;;;;;;4.00;2.30;;;13.10;99.90;;;;;;4964899;28;20066;-65
2023/04/17 08:42:01;;;;;;;6.90;2.83;;;13.10;99.90;;;;;;4960571;28;20430;-64
2023/04/17 08:44:27;;;;;;;4.82;2.60;;;13.10;99.90;;;;;;4947661;28;20031;-63
2023/04/17 08:46:57;;;;;;;3.20;1.98;;;13.40;99.90;;;;;;4959000;28;20393;-63
2023/04/17 08:49:27;;;;;;;8.32;3.40;;;13.30;99.90;;;;;;4947873;28;20111;-63
2023/04/17 08:51:53;;;;;;;3.85;2.00;;;13.60;99.90;;;;;;4960986;28;20058;-65
2023/04/17 08:54:20;;;;;;;4.13;2.17;;;13.70;99.90;;;;;;4965988;28;20475;-62
2023/04/17 08:56:47;;;;;;;4.20;2.30;;;13.80;99.90;;;;;;4961060;28;20403;-63
2023/04/17 08:59:13;;;;;;;9.02;2.83;;;13.50;99.90;;;;;;4966510;28;20030;-63
2023/04/17 09:02:02;;;;;;;5.57;2.22;;;13.70;99.90;;;;;;4960468;28;20031;-63
2023/04/17 09:04:39;;;;;;;8.70;1.95;;;14.00;99.90;;;;;;4939711;28;20031;-63
2023/04/17 09:07:06;;;;;;;3.70;2.30;;;14.20;99.90;;;;;;4962282;28;20113;-64
2023/04/17 09:09:53;;;;;;;3.90;2.20;;;14.20;99.90;;;;;;4946591;29;20059;-63
2023/04/17 09:12:21;;;;;;;3.88;1.70;;;14.40;99.90;;;;;;4952839;28;20061;-63
2023/04/17 09:14:47;;;;;;;3.25;1.50;;;14.70;99.90;;;;;;4962320;23;20047;-65
2023/04/17 09:17:19;;;;;;;4.25;1.55;;;14.60;99.90;;;;;;4962773;28;20535;-65
2023/04/17 09:20:16;;;;;;;3.47;1.80;;;14.50;99.90;;;;;;4948389;28;20036;-65
2023/04/17 09:22:42;;;;;;;4.32;2.28;;;14.70;99.90;;;;;;4955102;28;20035;-65
2023/04/17 09:25:22;;;;;;;4.95;2.28;;;14.30;99.90;;;;;;4960492;28;20083;-65
2023/04/17 09:27:47;;;;;;;5.40;2.75;;;14.10;99.90;;;;;;4931931;29;20027;-65
2023/04/17 09:30:13;;;;;;;14.02;3.50;;;13.90;99.90;;;;;;4929425;29;20567;-65
2023/04/17 09:32:39;;;;;;;6.55;3.00;;;13.60;99.90;;;;;;4931907;29;20034;-65
2023/04/17 09:35:05;;;;;;;5.18;2.55;;;13.50;99.90;;;;;;4933504;29;20036;-64
2023/04/17 09:37:54;;;;;;;5.50;2.85;;;13.60;99.90;;;;;;4931884;29;20038;-64
2023/04/17 09:40:22;;;;;;;7.20;3.22;;;13.50;99.90;;;;;;4928136;29;20059;-64
2023/04/17 09:43:05;;;;;;;7.03;2.50;;;13.40;99.90;;;;;;4933040;29;20365;-64
2023/04/17 09:45:38;;;;;;;15.65;3.08;;;13.20;99.90;;;;;;4928290;29;20027;-64
2023/04/17 09:48:10;;;;;;;7.60;3.50;;;13.30;99.90;;;;;;4935627;29;20031;-65
2023/04/17 09:50:36;;;;;;;6.85;3.17;;;13.30;99.90;;;;;;4947724;28;20040;-65
2023/04/17 09:53:04;;;;;;;6.03;3.40;;;13.40;99.90;;;;;;4935396;29;20032;-64
2023/04/17 09:55:31;;;;;;;7.72;2.92;;;13.60;99.90;;;;;;4935518;29;20658;-65
2023/04/17 09:58:01;;;;;;;5.43;2.42;;;13.30;99.90;;;;;;4935410;29;20047;-64
2023/04/17 10:00:28;;;;;;;7.47;3.30;;;12.90;99.90;;;;;;4933784;29;20063;-64
2023/04/17 10:02:56;;;;;;;5.07;2.70;;;13.20;99.90;;;;;;4936469;29;20039;-65
2023/04/17 10:05:28;;;;;;;7.03;2.53;;;13.30;99.90;;;;;;4936541;29;20027;-65
2023/04/17 10:07:55;;;;;;;5.18;2.60;;;13.50;99.90;;;;;;4935040;29;20114;-65
2023/04/17 10:10:32;;;;;;;4.50;2.10;;;13.70;99.90;;;;;;4931389;29;20027;-65
2023/04/17 10:13:01;;;;;;;4.28;2.10;;;13.80;99.90;;;;;;4935284;29;20126;-64
2023/04/17 10:15:28;;;;;;;4.53;2.45;;;13.80;99.90;;;;;;4935037;29;20038;-65
2023/04/17 10:17:57;;;;;;;7.00;2.50;;;13.60;99.90;;;;;;4934706;29;20071;-64
2023/04/17 10:20:22;;;;;;;6.43;2.55;;;13.60;99.90;;;;;;4930998;29;20325;-65
2023/04/17 10:22:53;;;;;;;5.85;3.05;;;13.50;99.90;;;;;;4936033;29;20508;-65
2023/04/17 10:25:23;;;;;;;5.22;2.53;;;13.10;99.90;;;;;;4931421;29;20028;-65
2023/04/17 10:27:57;;;;;;;5.43;2.75;;;13.10;99.90;;;;;;4934952;29;20118;-64
2023/04/17 10:30:25;;;;;;;3.70;2.03;;;13.20;99.90;;;;;;4932089;29;20036;-64
2023/04/17 10:33:14;;;;;;;6.03;2.92;;;13.30;99.90;;;;;;4919034;29;20417;-65
2023/04/17 10:35:40;;;;;;;6.15;3.05;;;13.40;99.90;;;;;;4938402;29;20094;-64
2023/04/17 10:38:07;;;;;;;6.88;3.10;;;13.30;99.90;;;;;;4918532;29;20063;-64
2023/04/17 10:40:38;;;;;;;7.00;2.95;;;13.30;99.90;;;;;;4930938;29;20114;-64
2023/04/17 10:43:16;;;;;;;5.95;3.30;;;13.40;99.90;;;;;;4935745;29;20523;-64
2023/04/17 10:46:00;;;;;;;11.23;3.92;;;13.20;99.90;;;;;;4931074;29;20070;-64
2023/04/17 10:48:41;;;;;;;8.35;3.25;;;13.40;99.90;;;;;;4930431;29;20436;-64
2023/04/17 10:51:27;;;;;;;5.82;3.13;;;13.50;99.90;;;;;;4933341;29;20031;-64
2023/04/17 10:53:58;;;;;;;8.13;3.30;;;13.60;99.90;;;;;;4935369;29;20404;-65
2023/04/17 10:56:33;;;;;;;9.20;3.28;;;13.70;99.90;;;;;;4930864;29;20725;-64
2023/04/17 10:59:08;;;;;;;4.20;2.63;;;13.90;99.90;;;;;;4934429;29;20035;-64
2023/04/17 11:01:56;;;;;;;6.55;2.80;;;13.80;99.90;;;;;;4934244;29;20063;-65
2023/04/17 11:04:29;;;;;;;6.47;2.75;;;14.10;99.90;;;;;;4924225;29;20035;-65
2023/04/17 11:06:55;;;;;;;7.93;3.67;;;14.20;99.90;;;;;;4933885;29;20036;-65
2023/04/17 11:09:23;;;;;;;7.15;3.50;;;14.00;99.90;;;;;;4932728;29;20114;-65
2023/04/17 11:11:49;;;;;;;6.35;2.95;;;14.30;99.90;;;;;;4935135;29;20114;-64
2023/04/17 11:14:21;;;;;;;3.28;1.67;;;14.50;99.90;;;;;;4933820;29;20480;-65
2023/04/17 11:16:50;;;;;;;3.53;1.80;;;14.70;99.90;;;;;;4932664;29;20039;-65
2023/04/17 11:19:21;;;;;;;3.88;1.58;;;14.90;99.90;;;;;;4933596;29;20118;-65
2023/04/17 11:21:53;;;;;;;1.92;1.08;;;14.90;99.90;;;;;;4932634;29;20507;-65
2023/04/17 11:24:27;;;;;;;1.52;0.90;;;15.20;99.90;;;;;;4933153;29;20071;-65
2023/04/17 11:26:55;;;;;;;2.97;1.10;;;15.50;99.90;;;;;;4933056;29;20110;-65
2023/04/17 11:29:23;;;;;;;2.70;1.00;;;15.70;99.90;;;;;;4933867;29;20067;-65
2023/04/17 11:31:52;;;;;;;1.58;0.93;;;16.00;99.90;;;;;;4962975;28;20044;-64
2023/04/17 11:34:19;;;;;;;3.67;1.30;;;16.40;99.90;;;;;;4936229;28;20043;-64
2023/04/17 11:36:50;;;;;;;1.67;1.00;;;16.20;99.90;;;;;;4931968;29;20039;-64
2023/04/17 11:39:16;;;;;;;;;;;16.40;99.90;;;;;;4934672;29;20028;-64
2023/04/17 11:41:45;;;;;;;3.75;1.55;;;16.50;99.90;;;;;;4945668;29;19919;-65
2023/04/17 11:44:22;;;;;;;3.97;1.15;;;16.80;98.60;;;;;;4917699;29;20031;-64
2023/04/17 11:46:54;;;;;;;1.90;1.00;;;16.90;98.60;;;;;;4961847;28;20059;-65
2023/04/17 11:49:32;;;;;;;2.47;1.40;;;17.40;97.50;;;;;;4932442;29;20024;-64
2023/04/17 11:52:03;;;;;;;4.03;1.23;;;16.30;98.30;;;;;;4963805;28;20039;-65
2023/04/17 11:54:30;;;;;;;;;;;16.20;99.80;;;;;;4931818;29;20059;-64
2023/04/17 11:57:01;;;;;;;3.05;1.58;;;16.70;99.60;;;;;;4931979;29;19915;-65
2023/04/17 11:59:36;;;;;;;;;;;17.30;97.40;;;;;;4931482;29;20145;-65
2023/04/17 12:02:06;;;;;;;5.13;1.67;;;17.80;96.50;;;;;;4932402;29;19968;-65
2023/04/17 12:04:33;;;;;;;1.30;1.00;;;17.40;96.10;;;;;;4931997;29;20067;-65
2023/04/17 12:07:07;;;;;;;1.88;1.23;;;17.60;97.40;;;;;;4933300;29;20078;-65
2023/04/17 12:09:34;;;;;;;4.43;1.63;;;17.20;98.20;;;;;;4930367;29;20027;-65
2023/04/17 12:12:05;;;;;;;3.53;1.73;;;17.60;98.00;;;;;;4933314;29;20039;-65
2023/04/17 12:14:31;;;;;;;;;;;18.10;97.70;;;;;;4931418;29;20475;-65
2023/04/17 12:16:57;;;;;;;3.40;1.55;;;17.80;97.20;;;;;;4946224;29;19946;-65
2023/04/17 12:19:25;;;;;;;2.50;1.58;;;17.90;98.90;;;;;;4932756;29;20046;-65
2023/04/17 12:21:55;;;;;;;3.70;1.92;;;18.30;96.40;;;;;;4931724;29;20043;-64
2023/04/17 12:24:23;;;;;;;4.30;1.67;;;17.40;99.70;;;;;;4931999;29;20086;-65
2023/04/17 12:26:50;;;;;;;4.53;2.20;;;17.70;99.50;;;;;;4931525;29;20031;-64
2023/04/17 12:29:16;;;;;;;5.43;1.80;;;17.30;98.20;;;;;;4931923;29;20098;-63
2023/04/17 12:31:44;;;;;;;4.28;2.08;;;16.70;99.90;;;;;;4961633;28;20028;-64
2023/04/17 12:34:10;;;;;;;3.30;1.85;;;17.10;99.50;;;;;;4934037;29;20079;-64
2023/04/17 12:36:36;;;;;;;4.97;1.83;;;17.00;99.40;;;;;;4941568;29;20143;-64
2023/04/17 12:39:02;;;;;;;4.15;1.85;;;16.40;99.90;;;;;;4933112;29;20023;-64
2023/04/17 12:41:29;;;;;;;4.82;1.90;;;16.20;99.90;;;;;;4929914;29;20040;-64
2023/04/17 12:43:58;;;;;;;4.65;2.83;;;16.00;99.90;;;;;;4930913;29;20428;-64
2023/04/17 12:46:24;;;;;;;3.92;1.80;;;16.10;99.90;;;;;;4930003;29;20028;-65
2023/04/17 12:48:57;;;;;;;3.88;1.92;;;15.80;99.90;;;;;;4932471;29;20023;-65
2023/04/17 12:51:23;;;;;;;5.07;1.95;;;15.70;99.90;;;;;;4929582;29;20086;-65